Gaylord, MI (49734)

11:31 AM EDT on August 30, 2016 (GMT -0400)
NonFedAWOS | | Change Station

Elev 1327 ft 45.01 °N, 84.70 °W | Updated 31 minutes ago

Mostly Cloudy
Mostly Cloudy
77 °F
Feels Like 79 °F
N
7
Wind Variable Wind from North
Gusts 0.0 mph

Today
High -- | Low -- °F
--% Chance of Precip.
Yesterday
High -- | Low -- °F
Precip. -- in
Pressure 30.12 in
Visibility 10.0 miles
Clouds Scattered Clouds 1600 ft
Scattered Clouds 2500 ft
Mostly Cloudy 3100 ft
Heat Index 79 °F
Dew Point 69 °F
Humidity 77%
Rainfall in
Snow Depth Not available.
6:58 AM 8:18 PM
Waning Crescent, 3% visible
SPECI KGLR 301525Z AUTO 31008KT 270V330 10SM SCT016 SCT025 BKN031 26/21 A3012 RMK AO2 RAE02 P0000 T02560206
Pressure 30.12 in
Visibility 10.0 miles
Clouds Scattered Clouds 1600 ft
Scattered Clouds 2500 ft
Mostly Cloudy 3100 ft
Heat Index 79 °F
Dew Point 69 °F
Humidity 77%
Rainfall in
Snow Depth Not available.
6:58 AM 8:18 PM
Waning Crescent, 3% visible
SPECI KGLR 301525Z AUTO 31008KT 270V330 10SM SCT016 SCT025 BKN031 26/21 A3012 RMK AO2 RAE02 P0000 T02560206

10-Day Weather Forecast

Almanac

Astronomy

Aug. 30, 2016 Rise Set
Actual Time
Civil Twilight
Nautical Twilight
Astronomical Twilight
Moon
Length of Visible Light
Length of Day
Tomorrow will be .
, % of the Moon is Illuminated

Today's Extremes

State Highs State Lows

Community

WunderPhotos

Upload Photos

1,935,852 photos uploaded!

WunderBlog® & News

Nearby

Air Quality

  Air Quality AQ Index Pollutant
Not available.

Snow Depth

Station Depth Elevation

Earthquake Activity

City Distance Mag. Time & Date
Minimum magnitude displayed is 2.5.

Coastal Water Temperatures

Place Temperature

Stations

Nearby Weather Stations

Station Location Temp. Windchill Dew Point Humidity Wind Precip. Elev Updated Type
                   

Watches & Warnings

There are currently no watches in effect.